Time;durP1;ratioP1;P1;durP2;ratioP2;P2;SDS_P1;SDS_P2;PMS_P1;PMS_P2;Temp;Humidity;BMP_temperature;BMP_pressure;BME280_temperature;BME280_humidity;BME280_pressure;Samples;Min_cycle;Max_cycle;Signal;HPM_P1;HPM_P2
2021/01/31 00:02:28;;;;;;;47.05;20.08;;;;;;;-4.65;99.84;100416.75;6246366;28;20132;-78
2021/01/31 00:05:29;;;;;;;43.42;19.75;;;;;;;-4.65;99.82;100415.91;6246773;28;20425;-77
2021/01/31 00:08:32;;;;;;;46.22;19.80;;;;;;;-4.69;99.56;100415.03;6247020;28;20433;-76
2021/01/31 00:11:32;;;;;;;41.45;19.38;;;;;;;-4.70;99.89;100426.16;6247049;28;20041;-74
2021/01/31 00:14:33;;;;;;;52.78;19.95;;;;;;;-4.71;99.95;100421.88;6246541;28;20060;-77
2021/01/31 00:17:34;;;;;;;50.78;20.30;;;;;;;-4.74;99.98;100419.31;6247018;28;20047;-78
2021/01/31 00:20:38;;;;;;;48.70;20.38;;;;;;;-4.78;99.91;100432.09;6245507;28;20057;-76
2021/01/31 00:23:39;;;;;;;45.22;19.80;;;;;;;-4.79;99.48;100428.69;6276005;22;20115;-78
2021/01/31 00:26:40;;;;;;;36.85;16.35;;;;;;;-4.87;99.50;100425.22;6243374;28;20050;-78
2021/01/31 00:29:41;;;;;;;41.60;17.10;;;;;;;-4.95;99.31;100432.03;6246508;28;20049;-78
2021/01/31 00:32:42;;;;;;;36.50;15.43;;;;;;;-4.93;100.00;100438.88;6233206;28;20053;-78
2021/01/31 00:35:43;;;;;;;44.50;17.52;;;;;;;-4.99;99.98;100428.63;6235586;28;20077;-78
2021/01/31 00:38:44;;;;;;;48.85;17.45;;;;;;;-5.05;99.49;100433.69;6222131;28;20414;-76
2021/01/31 00:41:45;;;;;;;38.72;15.90;;;;;;;-5.07;99.50;100431.97;6234217;28;20052;-78
2021/01/31 00:44:49;;;;;;;47.50;17.23;;;;;;;-5.18;99.57;100443.03;6246277;28;20136;-78
2021/01/31 00:47:50;;;;;;;43.47;17.60;;;;;;;-5.14;100.00;100444.72;6226433;28;20046;-78
2021/01/31 00:50:51;;;;;;;42.25;16.10;;;;;;;-5.15;99.35;100434.50;6221892;28;20521;-78
2021/01/31 00:53:53;;;;;;;43.75;16.40;;;;;;;-5.32;99.23;100441.22;6221970;28;20049;-78
2021/01/31 00:56:53;;;;;;;47.03;16.95;;;;;;;-5.31;100.00;100443.81;6225911;28;20045;-77
2021/01/31 00:59:54;;;;;;;42.42;17.25;;;;;;;-5.29;100.00;100434.41;6242108;28;20418;-78
2021/01/31 01:02:56;;;;;;;43.13;15.25;;;;;;;-5.36;100.00;100433.53;6221796;28;20057;-78
2021/01/31 01:05:56;;;;;;;36.78;15.88;;;;;;;-5.49;98.90;100430.88;6221632;28;20077;-77
2021/01/31 01:08:58;;;;;;;38.35;15.98;;;;;;;-5.62;98.91;100437.63;6221959;28;20050;-77
2021/01/31 01:11:59;;;;;;;39.20;15.38;;;;;;;-5.63;98.72;100441.03;6221553;28;20112;-78
2021/01/31 01:15:00;;;;;;;37.38;14.95;;;;;;;-5.64;98.92;100437.59;6221853;28;20049;-78
2021/01/31 01:18:01;;;;;;;43.05;17.60;;;;;;;-5.55;98.95;100431.69;6221733;28;20064;-78
2021/01/31 01:21:02;;;;;;;40.97;16.27;;;;;;;-5.66;98.63;100431.63;6221662;28;20049;-78
2021/01/31 01:24:04;;;;;;;42.22;16.23;;;;;;;-5.58;99.65;100435.94;6221387;28;20061;-78
2021/01/31 01:27:05;;;;;;;47.30;17.52;;;;;;;-5.60;99.69;100428.25;6221814;28;20092;-78
2021/01/31 01:30:08;;;;;;;39.63;17.23;;;;;;;-5.61;100.00;100429.94;6221465;28;20077;-78
2021/01/31 01:33:08;;;;;;;45.22;16.52;;;;;;;-5.64;99.91;100436.75;6221616;28;20560;-78
2021/01/31 01:36:09;;;;;;;42.20;17.52;;;;;;;-5.72;99.72;100436.69;6221534;28;20068;-78
2021/01/31 01:39:11;;;;;;;38.65;15.75;;;;;;;-5.83;98.90;100443.41;6221377;28;20079;-78
2021/01/31 01:42:13;;;;;;;43.38;16.23;;;;;;;-5.91;98.84;100439.94;6224707;28;20046;-78
2021/01/31 01:45:14;;;;;;;40.63;16.15;;;;;;;-5.82;99.25;100439.16;6225964;28;20061;-78
2021/01/31 01:48:19;;;;;;;42.13;15.10;;;;;;;-5.74;99.52;100434.97;6226124;28;20092;-78
2021/01/31 01:51:30;;;;;;;33.40;13.52;;;;;;;-5.75;99.40;100429.00;6225959;28;20137;-77
2021/01/31 01:54:35;;;;;;;33.72;13.60;;;;;;;-5.77;99.99;100434.94;6226023;28;20052;-78
2021/01/31 01:57:43;;;;;;;30.48;12.60;;;;;;;-5.85;98.59;100427.22;6225843;28;20085;-78
2021/01/31 02:00:46;;;;;;;34.63;13.73;;;;;;;-6.00;97.90;100433.06;6225712;28;20116;-78
2021/01/31 02:03:47;;;;;;;38.08;14.60;;;;;;;-5.97;98.12;100439.91;6225529;28;20053;-78
2021/01/31 02:06:48;;;;;;;40.60;14.90;;;;;;;-6.01;98.43;100425.38;6225336;28;20050;-77
2021/01/31 02:09:51;;;;;;;32.35;13.73;;;;;;;-5.94;99.04;100422.06;6225542;28;20053;-78
2021/01/31 02:12:57;;;;;;;35.75;13.77;;;;;;;-5.94;99.04;100430.59;6225519;28;20094;-77
2021/01/31 02:15:59;;;;;;;35.38;14.55;;;;;;;-5.92;99.19;100434.00;6225253;28;20177;-78
2021/01/31 02:19:25;;;;;;;36.88;14.18;;;;;;;-5.90;98.99;100439.13;6225626;28;20050;-77
2021/01/31 02:22:47;;;;;;;29.98;11.85;;;;;;;-6.14;96.85;100438.06;6224928;28;20077;-77
2021/01/31 02:25:58;;;;;;;37.80;13.45;;;;;;;-6.23;95.78;100450.75;6225058;28;20054;-78
2021/01/31 02:29:07;;;;;;;34.47;13.40;;;;;;;-6.25;97.22;100447.34;6225137;28;20060;-78
2021/01/31 02:32:25;;;;;;;36.90;14.00;;;;;;;-6.16;97.87;100439.75;6224949;28;20050;-78
2021/01/31 02:35:29;;;;;;;36.60;13.98;;;;;;;-6.14;98.27;100434.66;6224752;28;20514;-77
2021/01/31 02:38:37;;;;;;;31.45;12.68;;;;;;;-6.18;97.98;100427.78;6224970;28;20046;-78
2021/01/31 02:41:44;;;;;;;30.52;12.30;;;;;;;-6.28;97.71;100434.50;6224558;28;20054;-78
2021/01/31 02:44:55;;;;;;;39.42;13.82;;;;;;;-6.21;98.88;100428.63;6224915;28;20042;-78
2021/01/31 02:48:00;;;;;;;38.13;15.30;;;;;;;-6.25;97.50;100432.00;6224608;28;20057;-78
2021/01/31 02:51:09;;;;;;;36.42;13.35;;;;;;;-6.24;97.82;100433.72;6224475;28;20049;-78
2021/01/31 02:54:17;;;;;;;36.80;13.20;;;;;;;-6.20;98.91;100424.38;6224435;28;20419;-78
2021/01/31 02:57:26;;;;;;;38.35;14.00;;;;;;;-6.29;98.31;100426.84;6224582;28;20046;-78
2021/01/31 03:00:33;;;;;;;38.13;15.77;;;;;;;-6.30;98.44;100426.00;6224477;28;20046;-78
2021/01/31 03:03:40;;;;;;;38.50;15.18;;;;;;;-6.33;98.55;100425.94;6224503;28;20062;-78
2021/01/31 03:06:47;;;;;;;42.22;14.68;;;;;;;-6.29;99.48;100425.13;6224181;28;20046;-77
2021/01/31 03:09:52;;;;;;;37.90;14.57;;;;;;;-6.25;99.70;100426.88;6224442;28;20054;-78
2021/01/31 03:12:58;;;;;;;42.03;14.02;;;;;;;-6.34;98.88;100444.69;6223829;28;20046;-78
2021/01/31 03:16:07;;;;;;;39.15;15.93;;;;;;;-6.44;98.49;100441.19;6224149;28;20046;-78
2021/01/31 03:19:14;;;;;;;42.75;15.10;;;;;;;-6.39;99.30;100439.53;6223815;28;20053;-77
2021/01/31 03:22:22;;;;;;;35.40;14.02;;;;;;;-6.42;98.47;100436.06;6223736;28;20053;-77
2021/01/31 03:25:29;;;;;;;37.67;15.70;;;;;;;-6.41;99.12;100430.97;6223662;28;20046;-77
2021/01/31 03:28:30;;;;;;;35.80;13.00;;;;;;;-6.43;97.33;100439.50;6223836;28;20509;-77
2021/01/31 03:31:36;;;;;;;29.73;12.38;;;;;;;-6.59;96.33;100442.69;6223487;28;20060;-77
2021/01/31 03:34:44;;;;;;;38.22;13.88;;;;;;;-6.58;97.55;100440.19;6223609;28;20100;-77
2021/01/31 03:37:51;;;;;;;34.05;13.43;;;;;;;-6.56;98.14;100435.06;6223520;28;20045;-77
2021/01/31 03:40:56;;;;;;;34.42;13.82;;;;;;;-6.55;97.69;100437.66;6223328;28;20490;-77
2021/01/31 03:43:57;;;;;;;32.95;13.45;;;;;;;-6.65;97.87;100431.56;6222735;28;20054;-78
2021/01/31 03:47:04;;;;;;;36.15;13.52;;;;;;;-6.65;97.82;100429.03;6223302;28;20136;-77
2021/01/31 03:50:06;;;;;;;31.40;13.15;;;;;;;-6.63;97.93;100429.06;6223082;28;20053;-77
2021/01/31 03:53:09;;;;;;;33.20;13.77;;;;;;;-6.62;98.02;100433.31;6223200;28;20422;-77
2021/01/31 03:56:14;;;;;;;36.95;13.52;;;;;;;-6.74;97.01;100435.72;6222861;28;20498;-77
2021/01/31 03:59:21;;;;;;;36.42;13.27;;;;;;;-6.80;96.91;100439.06;6223312;28;20057;-76
2021/01/31 04:02:26;;;;;;;36.75;14.15;;;;;;;-6.82;96.73;100439.88;6222641;28;20056;-76
2021/01/31 04:05:31;;;;;;;34.92;14.00;;;;;;;-6.91;96.52;100435.50;6222510;28;20046;-76
2021/01/31 04:08:35;;;;;;;39.13;13.48;;;;;;;-6.87;96.85;100436.41;6222919;28;20050;-77
2021/01/31 04:11:38;;;;;;;33.58;12.93;;;;;;;-6.84;96.70;100439.03;6222781;28;20073;-77
2021/01/31 04:14:48;;;;;;;34.28;14.15;;;;;;;-6.86;96.40;100438.13;6222634;28;20056;-77
2021/01/31 04:17:50;;;;;;;31.10;11.48;;;;;;;-6.84;96.60;100439.88;6222561;28;20053;-77
2021/01/31 04:20:52;;;;;;;37.22;13.85;;;;;;;-6.89;96.31;100438.97;6222459;28;20049;-78
2021/01/31 04:23:53;;;;;;;29.77;12.65;;;;;;;-6.93;96.80;100435.50;6222221;28;20057;-78
2021/01/31 04:26:54;;;;;;;34.22;13.20;;;;;;;-6.92;96.73;100437.22;6222575;28;20498;-77
2021/01/31 04:29:55;;;;;;;32.00;12.90;;;;;;;-7.10;95.54;100446.34;6222423;28;20188;-78
2021/01/31 04:32:56;;;;;;;32.58;13.88;;;;;;;-7.12;95.92;100430.16;6222250;28;20066;-78
2021/01/31 04:35:57;;;;;;;33.60;13.35;;;;;;;-7.03;96.54;100437.94;6222314;28;20046;-78
2021/01/31 04:38:58;;;;;;;32.17;12.80;;;;;;;-7.07;96.08;100436.19;6222089;28;20499;-78
2021/01/31 04:41:59;;;;;;;30.10;12.00;;;;;;;-7.04;96.43;100439.63;6221917;28;20422;-77
2021/01/31 04:45:00;;;;;;;33.75;12.43;;;;;;;-7.04;96.19;100436.19;6222279;28;20057;-77
2021/01/31 04:48:15;;;;;;;30.38;12.93;;;;;;;-7.08;94.96;100439.56;6222136;28;20065;-78
2021/01/31 04:51:28;;;;;;;33.53;11.65;;;;;;;-7.25;94.65;100437.66;6222155;28;20054;-77
2021/01/31 04:54:44;;;;;;;30.13;12.40;;;;;;;-7.22;94.95;100445.34;6221913;28;20054;-77
2021/01/31 04:57:53;;;;;;;29.33;11.35;;;;;;;-7.26;95.44;100443.59;6222147;28;20053;-77
2021/01/31 05:00:58;;;;;;;31.55;12.30;;;;;;;-7.28;95.18;100436.75;6221745;28;20061;-77
2021/01/31 05:04:02;;;;;;;31.60;12.48;;;;;;;-7.30;94.44;100438.44;6222085;28;20046;-77
2021/01/31 05:07:06;;;;;;;32.33;12.90;;;;;;;-7.29;93.98;100451.19;6221930;28;20108;-77
2021/01/31 05:10:09;;;;;;;30.80;12.50;;;;;;;-7.29;94.04;100452.91;6221986;28;20054;-77
2021/01/31 05:13:22;;;;;;;31.10;12.30;;;;;;;-7.45;94.06;100460.34;6221637;28;20050;-77
2021/01/31 05:16:24;;;;;;;33.97;13.20;;;;;;;-7.35;95.85;100461.34;6223933;28;20141;-77
2021/01/31 05:19:30;;;;;;;32.75;13.13;;;;;;;-7.37;95.63;100459.56;6226676;28;20119;-77
2021/01/31 05:22:34;;;;;;;33.30;13.68;;;;;;;-7.33;95.94;100459.66;6226679;28;20490;-77
2021/01/31 05:25:37;;;;;;;33.97;12.65;;;;;;;-7.28;96.32;100457.16;6226353;28;20050;-77
2021/01/31 05:28:42;;;;;;;37.60;14.45;;;;;;;-7.24;96.49;100464.88;6226455;28;20108;-77
2021/01/31 05:31:52;;;;;;;37.58;15.02;;;;;;;-7.18;96.86;100462.41;6226176;28;20049;-77
2021/01/31 05:34:55;;;;;;;33.70;13.15;;;;;;;-7.23;96.72;100461.47;6226603;28;20052;-77
2021/01/31 05:37:56;;;;;;;38.20;14.40;;;;;;;-7.19;96.82;100463.25;6226210;28;20418;-77
2021/01/31 05:40:58;;;;;;;37.15;13.43;;;;;;;-7.27;95.46;100464.81;6226080;28;20046;-77
2021/01/31 05:44:01;;;;;;;29.63;12.45;;;;;;;-7.44;94.18;100474.81;6226206;28;20109;-77
2021/01/31 05:47:16;;;;;;;35.28;12.82;;;;;;;-7.54;94.44;100469.53;6226017;28;20057;-77
2021/01/31 05:50:31;;;;;;;35.08;13.68;;;;;;;-7.56;94.77;100468.66;6226156;28;20487;-76
2021/01/31 05:53:34;;;;;;;36.05;13.02;;;;;;;-7.43;95.67;100470.56;6225559;28;20049;-77
2021/01/31 05:56:39;;;;;;;35.40;13.25;;;;;;;-7.37;95.50;100472.34;6225878;28;20046;-77
2021/01/31 05:59:42;;;;;;;35.70;13.85;;;;;;;-7.33;95.74;100469.84;6225675;28;20050;-76
2021/01/31 06:03:01;;;;;;;32.20;12.38;;;;;;;-7.31;95.33;100467.31;6225588;28;20552;-77
2021/01/31 06:06:16;;;;;;;36.65;12.57;;;;;;;-7.29;95.83;100463.09;6225923;28;20045;-77
2021/01/31 06:09:31;;;;;;;38.17;12.50;;;;;;;-7.28;96.04;100454.59;6225568;28;20498;-77
2021/01/31 06:12:33;;;;;;;33.60;12.75;;;;;;;-7.35;96.40;100458.78;6225557;28;20054;-77
2021/01/31 06:15:39;;;;;;;33.28;12.50;;;;;;;-7.46;95.54;100457.75;6225230;28;20680;-77
2021/01/31 06:18:43;;;;;;;29.77;11.90;;;;;;;-7.47;96.09;100458.59;6225492;28;20049;-77
2021/01/31 06:21:47;;;;;;;34.28;12.70;;;;;;;-7.47;95.26;100464.56;6238026;28;20057;-77
2021/01/31 06:24:49;;;;;;;28.48;11.35;;;;;;;-7.62;92.61;100463.47;6260652;22;20052;-78
2021/01/31 06:27:54;;;;;;;28.13;11.63;;;;;;;-7.76;92.14;100463.25;6248768;28;20060;-78
2021/01/31 06:31:10;;;;;;;28.40;11.30;;;;;;;-7.70;93.23;100469.28;6248623;28;20045;-76
2021/01/31 06:34:12;;;;;;;29.40;11.63;;;;;;;-7.68;93.00;100467.63;6249217;28;20508;-78
2021/01/31 06:37:31;;;;;;;31.65;12.63;;;;;;;-7.80;92.13;100472.53;6249425;28;20053;-78
2021/01/31 06:40:37;;;;;;;;;;;;;;;-7.77;93.44;100467.47;6249148;28;20087;-78
2021/01/31 06:43:53;;;;;;;33.17;11.80;;;;;;;-7.72;94.27;100465.88;6248417;28;19921;-78
2021/01/31 06:47:07;;;;;;;27.98;11.98;;;;;;;-7.71;93.88;100470.13;6249069;28;20053;-78
2021/01/31 06:50:16;;;;;;;29.85;11.60;;;;;;;-7.73;93.75;100468.38;6249293;28;20045;-78
2021/01/31 06:53:27;;;;;;;33.55;13.00;;;;;;;-7.68;94.02;100467.63;6248826;28;20046;-78
2021/01/31 06:56:46;;;;;;;28.80;11.20;;;;;;;-7.66;94.35;100465.09;6249141;28;20057;-78
2021/01/31 07:00:09;;;;;;;32.50;12.60;;;;;;;-7.59;94.46;100471.16;6248893;28;20048;-78
2021/01/31 07:03:38;;;;;;;34.65;12.95;;;;;;;-7.59;94.98;100461.81;6248891;28;20160;-78
2021/01/31 07:07:04;;;;;;;28.73;11.07;;;;;;;-7.59;95.00;100461.81;6248969;28;20064;-78
2021/01/31 07:10:38;;;;;;;30.17;11.32;;;;;;;-7.66;95.03;100460.00;6248673;28;20099;-77
2021/01/31 07:14:12;;;;;;;31.73;11.02;;;;;;;-7.63;94.72;100462.59;6248570;28;20072;-78
2021/01/31 07:17:29;;;;;;;31.10;11.75;;;;;;;-7.63;94.04;100464.28;6221753;28;20045;-78
2021/01/31 07:20:34;;;;;;;31.83;12.63;;;;;;;-7.59;94.23;100471.16;6248411;28;20049;-77
2021/01/31 07:23:38;;;;;;;32.03;12.10;;;;;;;-7.62;94.40;100466.88;6248431;28;20159;-77
2021/01/31 07:26:47;;;;;;;30.13;12.38;;;;;;;-7.60;94.51;100467.75;6246690;28;20057;-77
2021/01/31 07:30:02;;;;;;;32.70;12.98;;;;;;;-7.61;94.79;100473.69;6248050;28;20045;-77
2021/01/31 07:33:12;;;;;;;29.25;12.27;;;;;;;-7.63;94.33;100467.69;6247728;28;20045;-77
2021/01/31 07:36:20;;;;;;;32.35;12.40;;;;;;;-7.61;94.59;100467.72;6247202;28;20414;-77
2021/01/31 07:39:26;;;;;;;34.72;14.25;;;;;;;-7.57;94.53;100467.81;6246855;28;20452;-77
2021/01/31 07:42:29;;;;;;;36.28;13.52;;;;;;;-7.59;93.90;100473.69;6245501;28;20512;-77
2021/01/31 07:45:30;;;;;;;36.03;13.80;;;;;;;-7.56;94.49;100476.31;6246287;28;20057;-77
2021/01/31 07:48:55;;;;;;;29.35;12.30;;;;;;;-7.60;94.42;100480.50;6246241;28;20707;-77
2021/01/31 07:52:03;;;;;;;33.00;13.02;;;;;;;-7.56;94.20;100471.22;6243715;28;20045;-77
2021/01/31 07:55:09;;;;;;;37.00;13.48;;;;;;;-7.49;94.79;100479.00;6246203;28;20037;-74
2021/01/31 07:58:38;;;;;;;40.80;14.57;;;;;;;-7.45;94.92;100470.56;6245584;28;20111;-77
2021/01/31 08:01:47;;;;;;;30.80;13.90;;;;;;;-7.44;95.13;100471.41;6244280;28;20076;-77
2021/01/31 08:04:48;;;;;;;30.05;13.30;;;;;;;-7.37;95.24;100472.34;6245934;28;20041;-78
2021/01/31 08:08:00;;;;;;;35.78;13.73;;;;;;;-7.37;95.60;100482.53;6245530;28;20045;-78
2021/01/31 08:11:03;;;;;;;37.10;14.43;;;;;;;-7.33;95.86;100489.41;6247341;28;20053;-77
2021/01/31 08:14:05;;;;;;;43.55;15.52;;;;;;;-7.31;95.97;100487.72;6247208;28;20493;-77
2021/01/31 08:17:06;;;;;;;34.97;13.85;;;;;;;-7.27;95.93;100481.84;6247243;28;20049;-77
2021/01/31 08:20:24;;;;;;;37.50;14.07;;;;;;;-7.22;95.53;100482.75;6247098;28;20498;-77
2021/01/31 08:23:53;;;;;;;38.00;14.25;;;;;;;-7.18;96.17;100487.94;6246873;28;20529;-77
2021/01/31 08:26:53;;;;;;;33.58;13.48;;;;;;;-7.11;96.65;100498.25;6246332;28;20533;-77
2021/01/31 08:30:13;;;;;;;36.58;14.00;;;;;;;-7.05;96.68;100485.56;6246988;28;20107;-78
2021/01/31 08:33:22;;;;;;;32.05;13.13;;;;;;;-7.03;96.19;100487.31;6246636;28;20053;-78
2021/01/31 08:36:25;;;;;;;;;;;;;;;-7.02;96.24;100481.34;6247490;28;20068;-77
2021/01/31 08:39:30;;;;;;;37.47;13.48;;;;;;;-6.97;96.34;100468.66;6246629;28;19967;-78
2021/01/31 08:42:31;;;;;;;34.90;14.02;;;;;;;-6.91;96.31;100476.38;6246837;28;20053;-78
2021/01/31 08:45:46;;;;;;;32.83;14.07;;;;;;;-6.90;96.20;100473.00;6246467;28;20564;-78
2021/01/31 08:48:50;;;;;;;32.85;13.05;;;;;;;-6.84;96.16;100480.75;6246794;28;20045;-77
2021/01/31 08:51:58;;;;;;;33.22;12.77;;;;;;;-6.78;96.64;100479.94;6246174;28;20539;-78
2021/01/31 08:55:00;;;;;;;70.35;27.20;;;;;;;-6.76;96.12;100473.19;6236369;28;20506;-78
2021/01/31 08:58:03;;;;;;;41.90;16.88;;;;;;;-6.81;95.49;100470.56;6234033;28;20108;-78
2021/01/31 09:01:04;;;;;;;45.53;17.00;;;;;;;-6.72;95.58;100470.69;6222807;28;20049;-78
2021/01/31 09:04:08;;;;;;;35.15;14.88;;;;;;;-6.71;95.69;100469.00;6245807;28;20049;-78
2021/01/31 09:07:12;;;;;;;40.53;16.05;;;;;;;-6.64;96.46;100469.06;6246450;28;20501;-78
2021/01/31 09:10:20;;;;;;;35.58;14.05;;;;;;;-6.53;96.28;100466.66;6239031;28;20045;-78
2021/01/31 09:13:28;;;;;;;37.63;15.50;;;;;;;-6.51;96.31;100464.09;6220907;28;20049;-77
2021/01/31 09:16:29;;;;;;;37.53;14.90;;;;;;;-6.40;96.58;100463.38;6221830;28;20049;-78
2021/01/31 09:19:30;;;;;;;32.70;15.07;;;;;;;-6.31;96.13;100460.06;6221428;28;20060;-78
2021/01/31 09:22:32;;;;;;;36.55;15.85;;;;;;;-6.36;95.67;100461.69;6221115;28;20520;-78
2021/01/31 09:25:34;;;;;;;43.08;16.83;;;;;;;-6.26;96.34;100471.19;6221212;28;20052;-77
2021/01/31 09:28:40;;;;;;;45.83;17.58;;;;;;;-6.09;96.31;100471.34;6239106;28;20042;-76
2021/01/31 09:31:42;;;;;;;37.85;16.58;;;;;;;-6.06;96.56;100473.09;6244950;28;20418;-78
2021/01/31 09:34:44;;;;;;;46.05;18.85;;;;;;;-5.91;97.44;100468.06;6246060;28;20056;-78
2021/01/31 09:37:45;;;;;;;36.03;16.60;;;;;;;-5.77;97.92;100474.16;6245521;28;20049;-78
2021/01/31 09:40:47;;;;;;;44.15;19.27;;;;;;;-5.68;98.17;100479.38;6245338;28;20053;-77
2021/01/31 09:43:52;;;;;;;47.47;18.25;;;;;;;-5.64;98.31;100482.81;6245711;28;20053;-78
2021/01/31 09:46:53;;;;;;;48.90;20.75;;;;;;;-5.54;98.96;100468.38;6244866;28;20413;-78
2021/01/31 09:49:58;;;;;;;51.83;22.92;;;;;;;-5.41;98.62;100473.59;6245362;28;20042;-76
2021/01/31 09:53:00;;;;;;;49.92;21.42;;;;;;;-5.38;98.61;100465.94;6244801;28;20398;-76
2021/01/31 09:56:04;;;;;;;42.08;19.17;;;;;;;-5.37;98.97;100469.34;6245407;28;20080;-75
2021/01/31 09:59:18;;;;;;;43.47;18.33;;;;;;;-5.21;99.28;100463.50;6245354;28;20115;-77
2021/01/31 10:02:21;;;;;;;45.17;19.15;;;;;;;-5.13;99.35;100473.78;6246534;28;20058;-77
2021/01/31 10:05:22;;;;;;;44.60;19.27;;;;;;;-5.03;99.46;100473.00;6249941;28;20053;-78
2021/01/31 10:08:24;;;;;;;42.38;19.45;;;;;;;-4.89;99.77;100473.91;6249889;28;20057;-78
2021/01/31 10:11:37;;;;;;;46.13;19.88;;;;;;;-4.87;99.90;100477.34;6249006;28;20049;-76
2021/01/31 10:14:43;;;;;;;46.92;20.00;;;;;;;-4.76;100.00;100476.56;6249911;28;20056;-78
2021/01/31 10:17:45;;;;;;;36.80;18.55;;;;;;;-4.70;100.00;100474.84;6249548;28;20418;-78
2021/01/31 10:20:46;;;;;;;41.10;18.77;;;;;;;-4.66;100.00;100470.59;6249170;28;20045;-78
2021/01/31 10:23:49;;;;;;;39.85;18.83;;;;;;;-4.50;100.00;100471.50;6249378;28;20060;-78
2021/01/31 10:27:04;;;;;;;38.45;17.58;;;;;;;-4.42;100.00;100468.13;6249257;28;20137;-77
2021/01/31 10:30:21;;;;;;;38.30;17.60;;;;;;;-4.32;100.00;100469.00;6249339;28;20085;-76
2021/01/31 10:33:39;;;;;;;37.92;16.85;;;;;;;-4.21;100.00;100463.91;6248800;28;20049;-75
2021/01/31 10:36:42;;;;;;;37.35;16.67;;;;;;;-4.16;100.00;100457.06;6249253;28;20107;-76
2021/01/31 10:39:44;;;;;;;34.08;15.68;;;;;;;-4.12;100.00;100457.09;6249362;28;20053;-75
2021/01/31 10:42:45;;;;;;;35.45;16.85;;;;;;;-4.03;100.00;100455.38;6248436;28;20060;-75
2021/01/31 10:45:46;;;;;;;37.55;17.30;;;;;;;-3.95;100.00;100444.28;6249160;28;20049;-78
2021/01/31 10:48:47;;;;;;;38.00;17.38;;;;;;;-3.82;100.00;100438.28;6248915;28;20056;-76
2021/01/31 10:51:48;;;;;;;37.78;17.40;;;;;;;-3.68;100.00;100439.97;6248334;28;20128;-75
2021/01/31 10:54:50;;;;;;;36.35;16.77;;;;;;;-3.59;100.00;100434.84;6248553;28;20061;-75
2021/01/31 10:57:50;;;;;;;35.20;18.27;;;;;;;-3.39;100.00;100434.84;6248680;28;20054;-77
2021/01/31 11:00:51;;;;;;;35.28;16.02;;;;;;;-3.35;100.00;100421.97;6247911;28;20073;-77
2021/01/31 11:03:52;;;;;;;32.47;14.65;;;;;;;-3.25;100.00;100419.41;6248624;28;20046;-78
2021/01/31 11:06:53;;;;;;;32.13;16.25;;;;;;;-3.12;100.00;100421.94;6248971;28;20096;-77
2021/01/31 11:09:55;;;;;;;37.50;17.05;;;;;;;-2.97;99.86;100412.44;6248380;28;20057;-80
2021/01/31 11:12:56;;;;;;;25.92;13.85;;;;;;;-2.86;99.69;100402.97;6246808;28;20490;-78
2021/01/31 11:15:57;;;;;;;30.13;14.93;;;;;;;-2.72;99.51;100408.06;6248069;28;20049;-78
2021/01/31 11:18:58;;;;;;;28.00;14.50;;;;;;;-2.61;99.20;100409.72;6248203;28;20045;-78
2021/01/31 11:21:59;;;;;;;27.40;14.73;;;;;;;-2.45;98.34;100405.34;6247490;28;20138;-78
2021/01/31 11:25:01;;;;;;;30.90;14.73;;;;;;;-2.21;97.46;100393.19;6248177;28;20049;-78
2021/01/31 11:28:02;;;;;;;29.52;15.70;;;;;;;-2.09;96.75;100390.50;6247885;28;20465;-79
2021/01/31 11:31:02;;;;;;;29.92;15.13;;;;;;;-1.95;95.97;100396.44;6247616;28;20053;-79
2021/01/31 11:34:03;;;;;;;29.75;15.82;;;;;;;-1.84;95.33;100393.75;6247963;28;20049;-80
2021/01/31 11:37:04;;;;;;;31.08;15.32;;;;;;;-1.70;95.05;100391.91;6246479;28;20080;-79
2021/01/31 11:40:08;;;;;;;25.50;14.18;;;;;;;-1.60;94.05;100390.09;6246575;28;20045;-80
2021/01/31 11:43:09;;;;;;;27.30;14.70;;;;;;;-1.54;94.93;100392.63;6246992;28;20049;-81
2021/01/31 11:46:10;;;;;;;30.52;15.70;;;;;;;-1.49;94.92;100385.72;6244254;28;20056;-80
2021/01/31 11:49:11;;;;;;;26.20;14.23;;;;;;;-1.44;93.06;100386.53;6246130;28;20204;-81
2021/01/31 11:52:12;;;;;;;25.30;13.48;;;;;;;-1.62;92.73;100378.97;6246990;28;20111;-81
2021/01/31 11:55:14;;;;;;;26.33;13.75;;;;;;;-1.73;93.77;100378.19;6247504;28;20110;-79
2021/01/31 11:58:15;;;;;;;24.63;12.48;;;;;;;-1.73;94.23;100371.31;6245983;28;20045;-81
2021/01/31 12:01:17;;;;;;;25.63;12.60;;;;;;;-1.61;94.63;100373.78;6247425;28;20667;-80
2021/01/31 12:04:18;;;;;;;31.23;14.23;;;;;;;-1.52;94.51;100367.69;6247367;28;20060;-80
2021/01/31 12:07:19;;;;;;;27.00;14.07;;;;;;;-1.50;94.26;100359.94;6247653;28;20049;-80
2021/01/31 12:10:21;;;;;;;27.23;13.75;;;;;;;-1.41;92.70;100360.72;6247315;28;20046;-80
2021/01/31 12:13:22;;;;;;;25.83;12.85;;;;;;;-1.41;92.42;100357.25;6247348;28;20057;-81
2021/01/31 12:16:23;;;;;;;24.08;12.90;;;;;;;-1.36;93.25;100351.22;6247399;28;20723;-81
2021/01/31 12:19:24;;;;;;;33.20;16.77;;;;;;;-1.17;94.90;100341.53;6246358;28;20168;-81
2021/01/31 12:22:25;;;;;;;33.30;17.13;;;;;;;-1.19;95.38;100338.13;6241824;28;20561;-81
2021/01/31 12:25:27;;;;;;;32.13;16.45;;;;;;;-1.03;96.04;100342.22;6273822;22;20052;-73
2021/01/31 12:28:27;;;;;;;32.70;16.33;;;;;;;-0.83;95.29;100333.38;6241280;28;20046;-73
2021/01/31 12:31:28;;;;;;;28.42;15.00;;;;;;;-0.71;95.37;100330.63;6241713;28;20118;-73
2021/01/31 12:34:29;;;;;;;26.52;13.45;;;;;;;-0.69;95.17;100330.59;6245634;28;20049;-73
2021/01/31 12:37:30;;;;;;;33.10;16.15;;;;;;;-0.56;94.14;100321.81;6239422;28;20045;-73
2021/01/31 12:40:33;;;;;;;33.38;16.17;;;;;;;-0.66;93.65;100317.66;6246574;28;20057;-73
2021/01/31 12:43:33;;;;;;;28.15;13.80;;;;;;;-0.78;94.25;100310.94;6245954;28;20060;-72
2021/01/31 12:46:35;;;;;;;22.30;11.95;;;;;;;-0.89;93.60;100305.94;6246279;28;20150;-73
2021/01/31 12:49:35;;;;;;;22.25;11.18;;;;;;;-0.85;93.05;100307.59;6246527;28;20103;-73
2021/01/31 12:52:37;;;;;;;20.98;11.38;;;;;;;-0.79;91.68;100299.78;6246110;28;20076;-73
2021/01/31 12:55:38;;;;;;;24.30;13.25;;;;;;;-0.74;91.69;100298.84;6246269;28;20079;-73
2021/01/31 12:58:40;;;;;;;20.80;11.02;;;;;;;-0.66;91.94;100284.13;6246312;28;20049;-73
2021/01/31 13:01:41;;;;;;;19.42;9.73;;;;;;;-0.57;90.68;100286.56;6246216;28;20053;-73
2021/01/31 13:04:42;;;;;;;18.50;10.32;;;;;;;-0.79;90.36;100273.13;6246109;28;20464;-73
2021/01/31 13:07:44;;;;;;;19.30;10.30;;;;;;;-0.87;91.50;100280.13;6246006;28;20605;-72
2021/01/31 13:10:47;;;;;;;23.00;11.57;;;;;;;-1.02;92.88;100274.28;6244325;28;20049;-73
2021/01/31 13:13:47;;;;;;;19.77;10.57;;;;;;;-1.20;93.43;100266.81;6246135;28;20061;-72
2021/01/31 13:16:48;;;;;;;21.48;11.68;;;;;;;-1.21;93.67;100269.41;6245768;28;20526;-72
2021/01/31 13:19:49;;;;;;;21.98;11.60;;;;;;;-1.28;94.28;100259.16;6246033;28;20149;-72
2021/01/31 13:22:51;;;;;;;21.70;11.68;;;;;;;-1.17;94.94;100265.94;6245204;28;20500;-73
2021/01/31 13:25:53;;;;;;;23.05;12.45;;;;;;;-1.18;95.70;100257.34;6244753;28;20064;-72
2021/01/31 13:28:53;;;;;;;26.65;13.90;;;;;;;-1.16;95.72;100253.00;6245710;28;20505;-72
2021/01/31 13:31:54;;;;;;;25.45;13.40;;;;;;;-1.06;95.48;100257.16;6244970;28;20053;-72
2021/01/31 13:34:55;;;;;;;27.88;13.52;;;;;;;-0.93;95.41;100246.69;6245751;28;20072;-72
2021/01/31 13:37:56;;;;;;;24.17;13.00;;;;;;;-0.80;95.80;100243.91;6248413;28;20056;-72
2021/01/31 13:40:58;;;;;;;26.98;14.32;;;;;;;-0.92;95.67;100241.50;6249334;28;20057;-72
2021/01/31 13:43:59;;;;;;;28.00;15.50;;;;;;;-0.87;96.18;100244.00;6250387;28;20053;-72
2021/01/31 13:47:00;;;;;;;27.55;14.82;;;;;;;-0.85;96.57;100242.28;6250687;28;20053;-72
2021/01/31 13:50:01;;;;;;;28.35;15.68;;;;;;;-0.78;96.54;100238.72;6248961;28;20059;-73
2021/01/31 13:53:02;;;;;;;29.17;15.20;;;;;;;-0.74;97.04;100235.22;6249409;28;20053;-72
2021/01/31 13:56:04;;;;;;;33.17;15.73;;;;;;;-0.77;97.24;100235.28;6250110;28;20107;-72
2021/01/31 13:59:05;;;;;;;28.60;14.77;;;;;;;-0.69;97.38;100229.97;6248830;28;20417;-72
2021/01/31 14:02:06;;;;;;;29.70;15.18;;;;;;;-0.87;95.90;100225.94;6250024;28;20642;-72